Time;durP1;ratioP1;P1;durP2;ratioP2;P2;SDS_P1;SDS_P2;PMS_P1;PMS_P2;Temp;Humidity;BMP_temperature;BMP_pressure;BME280_temperature;BME280_humidity;BME280_pressure;Samples;Min_cycle;Max_cycle;Signal;HPM_P1;HPM_P2
2022/03/27 00:00:44;;;;;;;23.57;13.03;;;;;;;12.04;43.77;99957.66;4141521;28;20320;-68
2022/03/27 00:02:46;;;;;;;21.13;12.67;;;;;;;11.59;44.84;99958.81;4140423;28;20311;-68
2022/03/27 00:04:48;;;;;;;22.43;11.63;;;;;;;11.77;44.55;99961.38;4141642;28;20649;-68
2022/03/27 00:06:49;;;;;;;22.03;11.83;;;;;;;11.81;44.42;99960.88;4139983;28;20244;-68
2022/03/27 00:08:51;;;;;;;22.80;13.30;;;;;;;11.52;45.14;99964.78;4148150;28;20289;-68
2022/03/27 00:13:13;;;;;;;21.67;12.07;;;;;;;11.46;45.24;99954.78;4143787;28;20229;-68
2022/03/27 00:15:15;;;;;;;21.67;12.13;;;;;;;11.41;45.72;99943.78;4143875;28;20621;-68
2022/03/27 00:17:18;;;;;;;22.97;12.20;;;;;;;11.38;45.56;99956.56;4143345;28;20260;-68
2022/03/27 00:19:20;;;;;;;22.57;13.07;;;;;;;11.26;45.75;99958.69;4154114;28;20773;-68
2022/03/27 00:21:23;;;;;;;20.47;11.97;;;;;;;11.44;45.47;99947.94;4159300;28;20225;-70
2022/03/27 00:23:24;;;;;;;20.90;11.50;;;;;;;11.42;45.53;99958.72;4145429;28;20733;-68
2022/03/27 00:25:26;;;;;;;22.67;12.57;;;;;;;11.30;45.86;99952.84;4143740;28;20350;-67
2022/03/27 00:27:28;;;;;;;21.57;12.90;;;;;;;11.13;46.14;99953.78;4143298;28;20265;-68
2022/03/27 00:29:30;;;;;;;20.77;13.10;;;;;;;11.21;46.11;99955.63;4147475;28;20248;-68
2022/03/27 00:31:35;;;;;;;21.10;12.03;;;;;;;10.39;47.63;99955.84;4160479;28;20740;-68
2022/03/27 00:33:39;;;;;;;22.73;13.10;;;;;;;11.27;46.14;99942.53;4139696;28;20279;-68
2022/03/27 00:35:41;;;;;;;21.67;12.57;;;;;;;11.13;46.41;99943.13;4144281;28;20316;-68
2022/03/27 00:37:42;;;;;;;18.97;12.10;;;;;;;11.18;46.35;99948.81;4148158;28;20229;-68
2022/03/27 00:39:44;;;;;;;17.03;12.17;;;;;;;11.29;46.60;99929.06;4143345;28;20753;-68
2022/03/27 00:41:45;;;;;;;19.07;12.27;;;;;;;11.09;46.70;99945.28;4143660;28;20701;-68
2022/03/27 00:43:48;;;;;;;18.67;12.97;;;;;;;11.15;46.82;99936.63;4143375;28;20291;-68
2022/03/27 00:45:51;;;;;;;20.50;12.43;;;;;;;11.31;46.53;99933.25;4141863;28;20565;-68
2022/03/27 00:47:53;;;;;;;21.37;12.47;;;;;;;11.20;46.93;99940.66;4143798;28;20233;-68
2022/03/27 00:49:55;;;;;;;21.07;11.97;;;;;;;11.45;46.35;99936.28;4143921;28;20242;-68
2022/03/27 00:51:56;;;;;;;18.87;12.50;;;;;;;11.14;46.75;99948.28;4143290;28;20242;-68
2022/03/27 00:53:59;;;;;;;23.27;12.70;;;;;;;11.15;46.80;99936.63;4143588;28;20253;-68
2022/03/27 00:56:01;;;;;;;21.70;11.57;;;;;;;11.08;47.16;99932.13;4147262;28;20783;-68
2022/03/27 00:58:02;;;;;;;23.43;12.63;;;;;;;11.26;46.52;99937.38;4143886;28;20260;-68
2022/03/27 01:00:17;;;;;;;16.30;11.10;;;;;;;11.57;46.24;99921.69;4145944;28;20329;-68
2022/03/27 01:02:21;;;;;;;23.70;12.53;;;;;;;11.28;46.63;99916.75;4150950;28;20232;-68
2022/03/27 01:04:23;;;;;;;23.00;11.97;;;;;;;10.67;47.55;99942.44;4143301;28;20244;-68
2022/03/27 01:06:31;;;;;;;17.40;10.60;;;;;;;11.25;46.63;99922.38;4142649;28;20800;-68
2022/03/27 01:10:53;;;;;;;22.00;11.23;;;;;;;10.89;47.53;99918.03;4141222;28;20272;-68
2022/03/27 01:12:55;;;;;;;20.13;11.77;;;;;;;11.05;47.43;99921.78;4143288;28;20765;-68
2022/03/27 01:14:58;;;;;;;21.10;11.60;;;;;;;10.75;47.88;99911.47;4143273;28;20387;-68
2022/03/27 01:17:13;;;;;;;19.00;11.17;;;;;;;10.69;48.39;99906.75;4142666;28;20773;-68
2022/03/27 01:19:16;;;;;;;16.87;11.47;;;;;;;10.91;47.49;99905.41;4136894;28;20640;-69
2022/03/27 01:21:17;;;;;;;18.23;11.33;;;;;;;10.64;48.02;99901.06;4143149;28;20612;-68
2022/03/27 01:23:19;;;;;;;19.33;10.93;;;;;;;10.44;48.46;99908.38;4142383;28;20324;-68
2022/03/27 01:25:21;;;;;;;26.43;11.70;;;;;;;10.84;47.37;99912.38;4143480;28;20267;-68
2022/03/27 01:27:23;;;;;;;25.03;11.47;;;;;;;10.89;47.42;99893.28;4143541;28;20265;-68
2022/03/27 01:29:25;;;;;;;19.03;10.73;;;;;;;10.86;47.71;99897.06;4143077;28;20364;-69
2022/03/27 01:31:27;;;;;;;23.53;12.10;;;;;;;10.78;47.43;99915.63;4143277;28;20229;-68
2022/03/27 01:33:29;;;;;;;19.60;11.00;;;;;;;10.88;47.22;99904.91;4143174;28;20233;-68
2022/03/27 01:35:31;;;;;;;19.43;11.80;;;;;;;11.01;47.23;99893.84;4142975;28;20308;-68
2022/03/27 01:37:33;;;;;;;22.83;11.60;;;;;;;10.78;47.80;99892.56;4143125;28;20284;-68
2022/03/27 01:39:35;;;;;;;19.07;11.33;;;;;;;10.61;48.44;99891.56;4142158;28;20761;-68
2022/03/27 01:41:38;;;;;;;20.10;12.13;;;;;;;10.74;48.38;99883.16;4147509;28;20665;-68
2022/03/27 01:43:40;;;;;;;18.63;11.63;;;;;;;11.05;47.66;99880.03;4151076;28;20295;-68
2022/03/27 01:45:41;;;;;;;23.43;12.10;;;;;;;11.04;47.51;99896.16;4150708;28;20264;-68
2022/03/27 01:47:43;;;;;;;22.10;10.90;;;;;;;10.97;47.54;99885.31;4141938;28;20324;-68
2022/03/27 01:49:45;;;;;;;17.07;11.13;;;;;;;11.03;47.39;99891.84;4148756;28;20664;-68
2022/03/27 01:51:47;;;;;;;15.50;10.57;;;;;;;10.65;47.69;99909.84;4157940;28;20286;-68
2022/03/27 01:53:49;;;;;;;28.17;11.97;;;;;;;10.75;48.25;99887.53;4142257;28;20279;-69
2022/03/27 01:55:50;;;;;;;26.07;12.13;;;;;;;10.29;49.28;99894.81;4142649;28;20758;-68
2022/03/27 01:57:52;;;;;;;25.77;10.80;;;;;;;9.80;49.50;99910.28;4148892;28;20308;-68
2022/03/27 01:59:53;;;;;;;18.40;12.23;;;;;;;10.82;48.10;99887.75;4158469;28;20323;-68
2022/03/27 02:01:55;;;;;;;21.50;12.03;;;;;;;10.19;49.89;99875.47;4156282;28;20744;-68
2022/03/27 02:03:57;;;;;;;17.17;11.20;;;;;;;10.55;48.87;99868.25;4142302;28;20308;-68
2022/03/27 02:05:59;;;;;;;20.50;12.40;;;;;;;10.57;48.74;99892.88;4142164;28;20261;-68
2022/03/27 02:08:01;;;;;;;21.03;11.63;;;;;;;10.07;49.36;99901.44;4142396;28;20722;-68
2022/03/27 02:10:22;;;;;;;19.97;12.53;;;;;;;10.04;50.00;99888.44;4137620;28;20247;-68
2022/03/27 02:12:24;;;;;;;18.60;11.60;;;;;;;10.35;49.40;99888.88;4141665;28;20256;-67
2022/03/27 02:14:26;;;;;;;19.33;12.40;;;;;;;11.12;48.02;99862.47;4133395;28;20549;-68
2022/03/27 02:16:27;;;;;;;20.23;12.70;;;;;;;11.54;47.21;99855.44;4142374;28;20260;-68
2022/03/27 02:18:31;;;;;;;17.50;11.83;;;;;;;11.16;47.33;99876.28;4141845;28;20329;-68
2022/03/27 02:20:32;;;;;;;17.13;11.10;;;;;;;10.34;49.22;99905.81;4142662;28;20256;-68
2022/03/27 02:22:34;;;;;;;22.33;12.60;;;;;;;10.12;50.37;99879.72;4142498;28;20308;-68
2022/03/27 02:24:36;;;;;;;20.20;12.30;;;;;;;10.57;49.26;99881.41;4141352;28;20309;-68
2022/03/27 02:26:46;;;;;;;24.57;13.13;;;;;;;10.74;49.04;99875.19;4142004;28;20272;-68
2022/03/27 02:28:47;;;;;;;27.50;14.17;;;;;;;11.13;48.16;99863.28;4145017;28;20256;-68
2022/03/27 02:30:49;;;;;;;18.17;11.77;;;;;;;10.01;50.38;99886.94;4143595;28;20757;-68
2022/03/27 02:32:51;;;;;;;23.10;12.33;;;;;;;10.14;50.18;99880.41;4144722;28;20243;-68
2022/03/27 02:34:53;;;;;;;19.20;12.33;;;;;;;10.66;49.16;99883.13;4142316;28;20324;-68
2022/03/27 02:36:54;;;;;;;17.87;11.77;;;;;;;9.47;51.38;99897.47;4141210;28;20626;-68
2022/03/27 02:38:56;;;;;;;18.07;12.50;;;;;;;9.99;50.86;99878.28;4142442;28;20748;-68
2022/03/27 02:40:58;;;;;;;19.20;11.43;;;;;;;9.96;50.46;99901.63;4141880;28;20764;-67
2022/03/27 02:42:59;;;;;;;20.47;12.10;;;;;;;9.66;51.16;99898.38;4143253;28;20708;-68
2022/03/27 02:45:01;;;;;;;19.60;11.23;;;;;;;10.20;50.15;99887.75;4148901;28;20276;-68
2022/03/27 02:47:05;;;;;;;20.30;11.40;;;;;;;10.11;50.34;99902.81;4142408;28;20268;-67
2022/03/27 02:49:08;;;;;;;19.80;11.27;;;;;;;10.14;50.45;99894.50;4133837;28;20233;-68
2022/03/27 02:51:10;;;;;;;18.60;11.57;;;;;;;10.23;50.11;99896.25;4142168;28;20319;-68
2022/03/27 02:53:12;;;;;;;22.60;11.83;;;;;;;9.72;51.08;99905.72;4141800;28;20797;-68
2022/03/27 02:55:14;;;;;;;17.03;11.80;;;;;;;9.83;50.71;99894.88;4141280;28;20794;-68
2022/03/27 02:57:15;;;;;;;15.17;10.63;;;;;;;10.07;50.53;99888.13;4141870;28;20260;-68
2022/03/27 02:59:18;;;;;;;15.17;10.73;;;;;;;9.96;50.76;99881.25;4143748;28;21156;-68
2022/03/27 03:01:19;;;;;;;18.87;10.93;;;;;;;9.38;51.47;99908.13;4155985;28;20592;-69
2022/03/27 03:03:22;;;;;;;21.80;10.63;;;;;;;9.73;51.20;99896.78;4141274;28;20717;-68
2022/03/27 03:05:24;;;;;;;17.07;10.93;;;;;;;9.88;51.00;99887.31;4142439;28;20241;-68
2022/03/27 03:07:26;;;;;;;18.23;10.97;;;;;;;9.23;52.22;99897.16;4140233;28;20324;-68
2022/03/27 03:09:28;;;;;;;17.77;11.27;;;;;;;9.31;52.06;99897.25;4143892;28;20232;-68
2022/03/27 03:11:30;;;;;;;21.80;12.10;;;;;;;9.81;51.16;99885.41;4151878;28;20372;-68
2022/03/27 03:13:32;;;;;;;18.23;10.77;;;;;;;9.77;51.40;99881.38;4141698;28;20439;-68
2022/03/27 03:15:34;;;;;;;17.50;11.47;;;;;;;9.84;50.80;99883.28;4142029;28;20264;-68
2022/03/27 03:17:36;;;;;;;17.33;10.80;;;;;;;9.94;50.68;99893.00;4141840;28;20229;-68
2022/03/27 03:19:38;;;;;;;14.33;10.60;;;;;;;9.64;51.55;99879.94;4141322;28;20237;-68
2022/03/27 03:21:40;;;;;;;14.67;11.07;;;;;;;9.63;51.48;99883.56;4141880;28;20276;-68
2022/03/27 03:23:41;;;;;;;18.27;11.00;;;;;;;9.84;50.92;99887.75;4141473;28;20270;-70
2022/03/27 03:25:43;;;;;;;15.53;10.97;;;;;;;9.69;51.23;99885.63;4141196;28;20324;-70
2022/03/27 03:28:05;;;;;;;16.40;11.27;;;;;;;9.48;51.62;99890.31;4141695;28;20324;-68
2022/03/27 03:30:09;;;;;;;17.63;11.07;;;;;;;9.56;51.66;99889.59;4141761;28;20268;-68
2022/03/27 03:32:10;;;;;;;15.83;11.00;;;;;;;9.41;52.19;99889.25;4141215;28;20248;-68
2022/03/27 03:34:12;;;;;;;18.27;10.57;;;;;;;9.32;52.06;99894.47;4141523;28;20261;-67
2022/03/27 03:36:15;;;;;;;17.13;11.20;;;;;;;9.35;51.73;99890.66;4136036;28;20264;-68
2022/03/27 03:38:17;;;;;;;17.87;11.23;;;;;;;9.22;52.19;99896.34;4142646;28;20332;-70
2022/03/27 03:40:19;;;;;;;15.00;9.97;;;;;;;9.18;52.09;99896.75;4141897;28;20694;-68
2022/03/27 03:42:20;;;;;;;18.00;11.13;;;;;;;9.09;52.43;99885.22;4141731;28;20655;-68
2022/03/27 03:44:23;;;;;;;15.87;10.80;;;;;;;9.03;52.60;99883.13;4148742;28;20319;-68
2022/03/27 03:46:25;;;;;;;17.60;11.47;;;;;;;8.69;53.05;99891.63;4146233;28;20749;-68
2022/03/27 03:48:26;;;;;;;19.27;11.57;;;;;;;8.98;52.53;99880.94;4144497;28;20693;-68
2022/03/27 03:50:29;;;;;;;17.13;10.67;;;;;;;9.12;51.94;99884.94;4149728;28;20257;-68
2022/03/27 03:52:31;;;;;;;18.73;11.07;;;;;;;9.11;52.16;99881.41;4145072;28;20320;-68
2022/03/27 03:54:35;;;;;;;16.80;10.43;;;;;;;9.17;52.06;99873.88;4133885;28;20257;-68
2022/03/27 03:56:38;;;;;;;18.70;10.60;;;;;;;9.26;51.81;99881.78;4155929;28;20750;-68
2022/03/27 03:58:40;;;;;;;18.43;10.93;;;;;;;9.07;52.17;99879.22;4146389;28;20298;-68
2022/03/27 04:00:42;;;;;;;14.83;10.77;;;;;;;9.43;51.42;99881.97;4161156;28;20252;-68
2022/03/27 04:02:44;;;;;;;17.87;10.80;;;;;;;9.26;51.83;99891.56;4151298;28;20245;-68
2022/03/27 04:04:46;;;;;;;16.93;10.60;;;;;;;9.23;51.65;99886.53;4144845;28;20252;-68
2022/03/27 04:06:48;;;;;;;14.57;11.27;;;;;;;9.39;51.35;99892.06;4144176;28;20733;-68
2022/03/27 04:08:49;;;;;;;17.87;10.73;;;;;;;9.06;52.22;99893.47;4143558;28;20332;-68
2022/03/27 04:10:51;;;;;;;16.43;10.90;;;;;;;9.05;52.18;99892.63;4144416;28;20237;-69
2022/03/27 04:12:53;;;;;;;18.40;11.37;;;;;;;9.42;51.20;99893.56;4143818;28;20317;-68
2022/03/27 04:14:54;;;;;;;18.43;11.53;;;;;;;9.40;51.32;99901.72;4142577;28;20262;-68
2022/03/27 04:16:56;;;;;;;16.80;10.87;;;;;;;9.41;51.35;99890.09;4144227;28;20333;-68
2022/03/27 04:18:58;;;;;;;15.63;10.87;;;;;;;9.62;50.65;99887.22;4159676;28;20728;-68
2022/03/27 04:20:59;;;;;;;18.70;10.90;;;;;;;9.66;50.36;99904.50;4160437;28;20256;-68
2022/03/27 04:23:02;;;;;;;19.97;11.07;;;;;;;9.71;50.63;99889.97;4149304;28;20324;-68
2022/03/27 04:25:03;;;;;;;16.57;11.53;;;;;;;9.64;50.66;99903.81;4143968;28;20265;-68
2022/03/27 04:27:05;;;;;;;17.30;10.60;;;;;;;9.44;50.93;99908.38;4143444;28;20261;-68
2022/03/27 04:29:08;;;;;;;14.50;10.43;;;;;;;9.73;50.02;99902.09;4142339;28;20225;-68
2022/03/27 04:31:09;;;;;;;17.20;11.13;;;;;;;9.74;50.23;99906.44;4149597;28;20647;-68
2022/03/27 04:33:12;;;;;;;20.17;11.03;;;;;;;9.80;49.91;99905.81;4146855;28;20241;-68
2022/03/27 04:35:14;;;;;;;16.93;10.83;;;;;;;9.80;49.92;99911.13;4144066;28;20304;-68
2022/03/27 04:37:16;;;;;;;17.03;11.93;;;;;;;9.73;49.95;99914.53;4143886;28;21048;-68
2022/03/27 04:39:18;;;;;;;14.47;10.77;;;;;;;9.97;49.73;99904.16;4143434;28;20772;-70
2022/03/27 04:41:20;;;;;;;19.07;12.57;;;;;;;9.97;49.48;99906.81;4143901;28;20245;-68
2022/03/27 04:43:22;;;;;;;24.33;13.57;;;;;;;10.11;49.57;99904.59;4150833;28;20243;-71
2022/03/27 04:45:24;;;;;;;22.23;13.17;;;;;;;10.25;48.99;99893.44;4151374;28;20265;-68
2022/03/27 04:47:25;;;;;;;19.83;12.80;;;;;;;9.92;49.72;99934.81;4143880;28;20748;-68
2022/03/27 04:49:27;;;;;;;20.70;12.10;;;;;;;9.76;49.89;99931.00;4154612;28;20263;-68
2022/03/27 04:51:29;;;;;;;18.17;11.77;;;;;;;9.47;50.68;99923.19;4160358;28;20536;-68
2022/03/27 04:53:30;;;;;;;17.67;11.33;;;;;;;9.46;50.57;99930.28;4144349;28;20746;-68
2022/03/27 04:55:32;;;;;;;17.33;11.60;;;;;;;9.79;49.79;99928.06;4143444;28;20271;-70
2022/03/27 04:57:37;;;;;;;15.63;10.87;;;;;;;9.26;50.75;99939.31;4143507;28;20264;-68
2022/03/27 04:59:38;;;;;;;18.73;11.37;;;;;;;9.85;49.60;99914.16;4143614;28;20681;-68
2022/03/27 05:01:41;;;;;;;17.77;10.63;;;;;;;9.68;49.84;99929.09;4143713;28;20264;-68
2022/03/27 05:03:43;;;;;;;22.37;12.27;;;;;;;9.18;50.84;99940.03;4143580;28;20741;-68
2022/03/27 05:05:45;;;;;;;16.97;11.20;;;;;;;9.67;49.97;99932.75;4144196;28;20245;-68
2022/03/27 05:07:47;;;;;;;18.43;12.10;;;;;;;9.56;50.16;99934.72;4147779;28;20322;-68
2022/03/27 05:09:48;;;;;;;19.80;13.07;;;;;;;9.41;50.35;99943.16;4144324;28;20779;-68
2022/03/27 05:11:50;;;;;;;19.67;13.67;;;;;;;9.52;50.31;99937.69;4141724;28;20261;-68
2022/03/27 05:13:52;;;;;;;24.73;16.07;;;;;;;9.27;50.55;99956.94;4147471;28;20237;-68
2022/03/27 05:15:53;;;;;;;23.03;15.40;;;;;;;9.37;50.89;99928.53;4156394;28;20236;-69
2022/03/27 05:17:58;;;;;;;23.57;15.93;;;;;;;9.18;50.86;99949.81;4143036;28;20230;-68
2022/03/27 05:20:02;;;;;;;24.40;14.47;;;;;;;9.44;50.79;99929.59;4142019;28;20229;-68
2022/03/27 05:22:04;;;;;;;24.93;15.20;;;;;;;9.37;50.73;99943.59;4143326;28;20250;-68
2022/03/27 05:24:08;;;;;;;20.93;14.10;;;;;;;9.30;50.93;99946.00;4134475;28;20233;-68
2022/03/27 05:26:10;;;;;;;20.00;13.60;;;;;;;9.50;50.71;99929.03;4136464;28;20245;-68
2022/03/27 05:28:14;;;;;;;15.53;12.10;;;;;;;8.79;51.79;99947.28;4140660;28;20234;-69
2022/03/27 05:30:17;;;;;;;16.57;11.60;;;;;;;9.00;51.49;99945.28;4143074;28;20501;-70
2022/03/27 05:32:18;;;;;;;18.33;11.20;;;;;;;8.96;51.88;99949.19;4143082;28;20266;-67
2022/03/27 05:34:20;;;;;;;18.83;11.83;;;;;;;9.17;51.66;99930.44;4143301;28;20269;-68
2022/03/27 05:36:22;;;;;;;17.87;10.40;;;;;;;9.17;51.57;99940.22;4142521;28;20770;-69
2022/03/27 05:38:23;;;;;;;18.17;11.10;;;;;;;8.79;52.39;99939.31;4134577;28;20238;-69
2022/03/27 05:40:26;;;;;;;17.60;11.50;;;;;;;8.98;52.32;99931.34;4143329;28;20272;-69
2022/03/27 05:42:27;;;;;;;15.27;10.93;;;;;;;9.18;51.68;99941.88;4142389;28;20313;-69
2022/03/27 05:44:29;;;;;;;18.43;10.87;;;;;;;8.95;52.07;99951.00;4149907;28;20669;-69
2022/03/27 05:46:30;;;;;;;15.03;10.47;;;;;;;8.82;52.55;99954.94;4143637;28;20274;-70
2022/03/27 05:48:32;;;;;;;21.10;10.73;;;;;;;8.75;52.98;99954.69;4140852;28;20252;-67
2022/03/27 05:50:34;;;;;;;17.33;10.53;;;;;;;8.84;52.66;99951.16;4143188;28;20257;-69
2022/03/27 05:52:36;;;;;;;18.07;10.33;;;;;;;8.51;53.43;99969.22;4143122;28;20260;-67
2022/03/27 05:54:38;;;;;;;15.47;11.13;;;;;;;8.91;52.65;99960.25;4142088;28;20245;-67
2022/03/27 05:56:39;;;;;;;17.27;10.80;;;;;;;8.75;53.31;99967.94;4142754;28;20240;-69
2022/03/27 05:58:41;;;;;;;16.50;11.03;;;;;;;8.61;53.24;99969.22;4143188;28;20264;-69
2022/03/27 06:00:43;;;;;;;16.80;11.27;;;;;;;9.01;52.32;99967.31;4142549;28;20332;-69
2022/03/27 06:02:49;;;;;;;16.63;11.00;;;;;;;8.76;53.30;99962.50;4142606;28;20756;-69
2022/03/27 06:04:51;;;;;;;18.40;10.60;;;;;;;8.89;52.84;99974.63;4142987;28;20465;-69
2022/03/27 06:06:53;;;;;;;14.93;10.30;;;;;;;8.88;53.24;99970.28;4142240;28;20672;-68
2022/03/27 06:08:57;;;;;;;18.03;11.00;;;;;;;9.27;52.46;99957.75;4142373;28;20241;-68
2022/03/27 06:10:59;;;;;;;15.27;12.07;;;;;;;8.81;53.03;99985.94;4142456;28;20244;-68
2022/03/27 06:13:02;;;;;;;15.40;10.47;;;;;;;9.50;51.87;99950.25;4141921;28;20264;-70
2022/03/27 06:15:04;;;;;;;19.07;11.97;;;;;;;9.40;52.09;99957.44;4141400;28;20266;-68
2022/03/27 06:17:06;;;;;;;18.27;10.47;;;;;;;9.11;52.78;99971.63;4142272;28;20229;-68
2022/03/27 06:19:07;;;;;;;18.73;10.57;;;;;;;8.71;53.26;100001.84;4142599;28;20265;-68
2022/03/27 06:21:09;;;;;;;29.60;11.67;;;;;;;9.14;53.00;99973.97;4142675;28;20249;-68
2022/03/27 06:23:11;;;;;;;16.20;10.70;;;;;;;9.21;52.92;99970.75;4144942;28;20257;-69
2022/03/27 06:25:15;;;;;;;15.93;10.70;;;;;;;9.04;52.83;99986.44;4141760;28;20245;-69
2022/03/27 06:27:17;;;;;;;15.83;10.97;;;;;;;8.93;53.56;99978.66;4142534;28;20604;-68
2022/03/27 06:29:20;;;;;;;24.00;10.93;;;;;;;9.16;53.03;99976.50;4146841;28;20400;-69
2022/03/27 06:31:22;;;;;;;15.37;10.73;;;;;;;9.14;53.04;99981.94;4142913;28;20268;-69
2022/03/27 06:33:24;;;;;;;17.20;11.70;;;;;;;8.80;53.77;100008.13;4142454;28;20732;-69
2022/03/27 06:35:26;;;;;;;17.37;10.20;;;;;;;9.30;53.21;99975.19;4142935;28;20265;-69
2022/03/27 06:37:29;;;;;;;15.93;10.47;;;;;;;9.33;52.73;99980.22;4141061;28;20660;-69
2022/03/27 06:39:30;;;;;;;18.10;11.33;;;;;;;9.58;52.53;99961.97;4141368;28;20642;-70
2022/03/27 06:41:32;;;;;;;19.60;10.60;;;;;;;9.43;52.76;99980.19;4142566;28;20316;-70
2022/03/27 06:43:36;;;;;;;16.37;11.50;;;;;;;9.41;53.18;99982.16;4141012;28;20326;-69
2022/03/27 06:45:38;;;;;;;17.43;11.17;;;;;;;9.30;53.25;99988.47;4150633;28;20264;-68
2022/03/27 06:47:43;;;;;;;17.20;11.23;;;;;;;9.69;52.51;99972.41;4142254;28;20232;-68
2022/03/27 06:49:45;;;;;;;16.07;10.90;;;;;;;9.71;52.54;99973.09;4141602;28;20264;-69
2022/03/27 06:51:47;;;;;;;15.83;10.60;;;;;;;9.82;52.05;99978.22;4141847;28;20272;-69
2022/03/27 06:53:50;;;;;;;15.70;10.13;;;;;;;9.76;52.27;99970.84;4142545;28;20230;-69
2022/03/27 06:55:51;;;;;;;17.43;10.47;;;;;;;9.75;52.60;99986.91;4142404;28;20321;-68
2022/03/27 06:57:53;;;;;;;15.83;10.67;;;;;;;9.67;52.23;99985.84;4143037;28;20276;-68
2022/03/27 07:04:36;;;;;;;15.23;10.13;;;;;;;10.31;51.41;99977.03;4144033;28;20485;-68
2022/03/27 07:06:42;;;;;;;15.67;10.17;;;;;;;10.50;50.94;99968.94;4142266;28;20271;-69
2022/03/27 07:08:44;;;;;;;16.93;10.07;;;;;;;10.35;51.40;99976.59;4151252;28;20238;-68
2022/03/27 07:10:48;;;;;;;17.60;10.40;;;;;;;10.48;51.36;99984.19;4149688;28;20233;-68
2022/03/27 07:12:49;;;;;;;16.43;10.83;;;;;;;10.72;50.56;99972.09;4141648;28;20237;-68
2022/03/27 07:14:54;;;;;;;19.27;11.30;;;;;;;10.37;51.36;99987.09;4141734;28;20760;-68
2022/03/27 07:17:19;;;;;;;17.37;10.73;;;;;;;10.75;50.41;99966.44;4125583;28;20226;-68
2022/03/27 07:19:21;;;;;;;18.30;11.00;;;;;;;10.38;51.34;100000.22;4143778;28;20774;-69
2022/03/27 07:21:22;;;;;;;18.83;11.43;;;;;;;10.38;51.41;99988.72;4145468;28;20450;-68
2022/03/27 07:23:24;;;;;;;16.83;11.10;;;;;;;10.61;51.10;99989.94;4144731;28;20261;-68
2022/03/27 07:25:28;;;;;;;15.47;10.63;;;;;;;11.04;50.24;99975.97;4143979;28;20263;-68
2022/03/27 07:27:31;;;;;;;16.23;10.37;;;;;;;10.67;50.97;99985.84;4144216;28;20267;-68
2022/03/27 07:29:34;;;;;;;17.10;10.63;;;;;;;10.65;50.97;99989.63;4145516;28;20283;-68
2022/03/27 07:31:36;;;;;;;18.17;10.83;;;;;;;10.37;51.94;100021.63;4145322;28;20244;-68
2022/03/27 07:33:38;;;;;;;14.13;10.53;;;;;;;10.98;50.52;99975.63;4144215;28;20240;-68
2022/03/27 07:35:40;;;;;;;17.17;10.70;;;;;;;11.25;50.06;99964.97;4144126;28;20268;-67
2022/03/27 07:37:43;;;;;;;15.87;10.60;;;;;;;11.13;50.13;99959.91;4145028;28;20683;-68
2022/03/27 07:39:45;;;;;;;15.07;10.63;;;;;;;11.45;49.62;99953.09;4144786;28;20225;-68
2022/03/27 07:41:47;;;;;;;15.90;10.57;;;;;;;11.35;49.88;99966.53;4144883;28;20678;-68
2022/03/27 07:43:49;;;;;;;16.17;10.93;;;;;;;10.99;50.82;99982.63;4148558;28;20475;-68
2022/03/27 07:45:50;;;;;;;17.30;11.10;;;;;;;11.35;50.26;99960.38;4152165;28;20244;-69
2022/03/27 07:47:54;;;;;;;16.23;10.53;;;;;;;10.91;50.40;100001.19;4143279;28;20324;-68
2022/03/27 07:49:57;;;;;;;15.43;10.07;;;;;;;11.13;50.68;99994.50;4145293;28;20271;-68
2022/03/27 07:52:05;;;;;;;16.13;10.90;;;;;;;11.47;49.91;99983.06;4144246;28;20261;-68
2022/03/27 07:54:07;;;;;;;19.07;10.03;;;;;;;11.49;49.19;99980.22;4144381;28;20279;-68
2022/03/27 07:56:09;;;;;;;20.13;11.00;;;;;;;11.61;49.74;99978.97;4143555;28;20341;-69
2022/03/27 07:58:10;;;;;;;17.03;10.73;;;;;;;11.52;49.56;99979.91;4144010;28;20260;-68
2022/03/27 08:00:15;;;;;;;18.27;11.20;;;;;;;11.53;50.07;99985.09;4144838;28;20729;-67
2022/03/27 08:02:18;;;;;;;19.23;11.60;;;;;;;11.64;49.88;99965.31;4144475;28;20272;-67
2022/03/27 08:04:24;;;;;;;18.70;11.10;;;;;;;11.98;49.19;99969.78;4144371;28;20244;-68
2022/03/27 08:06:26;;;;;;;19.53;10.90;;;;;;;11.85;49.08;99972.09;4144837;28;20267;-68
2022/03/27 08:08:27;;;;;;;18.53;10.77;;;;;;;11.75;49.46;99972.19;4151171;28;20240;-68
2022/03/27 08:10:29;;;;;;;18.87;11.63;;;;;;;12.04;48.46;99955.81;4144098;28;21885;-68
2022/03/27 08:12:31;;;;;;;22.77;11.43;;;;;;;11.81;48.15;99968.88;4144712;28;20256;-68
2022/03/27 08:14:34;;;;;;;22.73;11.53;;;;;;;12.30;48.41;99944.19;4143978;28;20329;-70
2022/03/27 08:16:37;;;;;;;15.80;10.63;;;;;;;12.28;47.47;99935.53;4143773;28;20752;-68
2022/03/27 08:18:39;;;;;;;20.80;11.80;;;;;;;12.48;47.35;99923.50;4147874;28;20229;-69
2022/03/27 08:20:41;;;;;;;18.67;11.43;;;;;;;12.69;47.83;99932.00;4144512;28;20249;-68
2022/03/27 08:22:46;;;;;;;17.43;11.17;;;;;;;12.42;48.68;99971.34;4143559;28;20296;-67
2022/03/27 08:24:49;;;;;;;20.43;11.40;;;;;;;12.70;47.90;99949.69;4142945;28;20280;-68
2022/03/27 08:26:57;;;;;;;18.30;11.07;;;;;;;12.99;46.68;99922.47;4143890;28;20264;-68
2022/03/27 08:29:02;;;;;;;17.73;10.93;;;;;;;12.59;47.57;99940.19;4143554;28;20320;-67
2022/03/27 08:31:04;;;;;;;18.57;10.60;;;;;;;12.98;47.58;99942.19;4143744;28;20260;-68
2022/03/27 08:33:06;;;;;;;17.47;11.97;;;;;;;13.05;48.42;99937.81;4139452;28;20260;-67
2022/03/27 08:35:08;;;;;;;19.90;11.60;;;;;;;13.02;48.42;99949.66;4144131;28;20277;-67
2022/03/27 08:37:13;;;;;;;19.13;11.30;;;;;;;13.43;46.35;99927.34;4143918;28;20225;-67
2022/03/27 08:39:15;;;;;;;23.70;11.27;;;;;;;13.17;46.05;99939.13;4144333;28;20268;-68
2022/03/27 08:41:17;;;;;;;18.07;10.53;;;;;;;13.43;47.01;99929.19;4143825;28;20257;-68
2022/03/27 08:43:19;;;;;;;19.57;11.20;;;;;;;13.13;47.00;99944.97;4144116;28;20264;-68
2022/03/27 08:45:21;;;;;;;19.27;11.43;;;;;;;13.59;46.41;99943.31;4145353;28;20257;-69
2022/03/27 08:47:25;;;;;;;16.50;11.23;;;;;;;12.59;48.28;99994.38;4143478;28;20492;-67
2022/03/27 08:49:32;;;;;;;14.93;10.83;;;;;;;13.46;46.27;99950.22;4143980;28;20241;-67
2022/03/27 08:51:46;;;;;;;20.27;11.40;;;;;;;12.51;48.61;100002.38;4144013;28;20233;-67
2022/03/27 08:53:55;;;;;;;14.73;10.87;;;;;;;13.86;45.81;99919.00;4141022;28;20253;-70
2022/03/27 08:56:03;;;;;;;18.70;10.67;;;;;;;13.73;46.83;99935.56;4143881;28;20673;-67
2022/03/27 08:58:07;;;;;;;18.97;11.30;;;;;;;13.47;46.83;99968.75;4143278;28;20244;-67
2022/03/27 09:00:10;;;;;;;17.03;11.03;;;;;;;13.69;46.54;99940.44;4143957;28;20257;-68
2022/03/27 09:02:16;;;;;;;18.07;11.47;;;;;;;13.58;46.70;99952.34;4143201;28;20263;-67
2022/03/27 09:04:18;;;;;;;18.00;12.37;;;;;;;13.98;45.90;99944.31;4142352;28;20229;-68
2022/03/27 09:06:21;;;;;;;19.43;11.03;;;;;;;13.98;45.73;99928.25;4148452;28;20256;-68
2022/03/27 09:08:23;;;;;;;16.03;11.33;;;;;;;14.40;45.50;99910.09;4145353;28;20269;-68
2022/03/27 09:10:27;;;;;;;20.80;11.53;;;;;;;13.81;45.80;99937.38;4143407;28;20320;-68
2022/03/27 09:12:29;;;;;;;18.80;11.37;;;;;;;13.03;45.63;99975.38;4143464;28;20271;-67
2022/03/27 09:14:32;;;;;;;16.60;10.60;;;;;;;13.95;45.23;99961.50;4143362;28;20680;-68
2022/03/27 09:17:06;;;;;;;19.93;11.27;;;;;;;14.09;45.64;99972.47;4141505;28;20248;-68
2022/03/27 09:19:11;;;;;;;15.47;11.23;;;;;;;14.54;44.93;99928.00;4138934;28;20328;-67
2022/03/27 09:21:14;;;;;;;18.97;11.50;;;;;;;14.96;44.95;99905.22;4143554;28;20273;-67
2022/03/27 09:23:25;;;;;;;18.30;11.00;;;;;;;14.26;45.05;99954.47;4142494;28;20317;-68
2022/03/27 09:25:28;;;;;;;19.43;10.80;;;;;;;15.01;44.26;99902.81;4138585;28;20233;-68
2022/03/27 09:27:31;;;;;;;20.23;11.67;;;;;;;14.56;45.57;99963.44;4143766;28;20253;-68
2022/03/27 09:29:55;;;;;;;20.30;11.80;;;;;;;14.47;44.88;99983.25;4142473;28;20261;-67
2022/03/27 09:31:58;;;;;;;21.80;11.90;;;;;;;15.11;43.75;99925.81;4143352;28;20253;-68
2022/03/27 09:34:02;;;;;;;25.47;11.87;;;;;;;14.83;44.51;99955.88;4142799;28;20260;-68
2022/03/27 09:36:05;;;;;;;14.47;9.93;;;;;;;15.16;43.65;99944.84;4142483;28;20252;-68
2022/03/27 09:38:14;;;;;;;18.20;10.87;;;;;;;14.83;44.27;99969.25;4143036;28;20233;-68